Time;durP1;ratioP1;P1;durP2;ratioP2;P2;SDS_P1;SDS_P2;PMS_P1;PMS_P2;Temp;Humidity;BMP_temperature;BMP_pressure;BME280_temperature;BME280_humidity;BME280_pressure;Samples;Min_cycle;Max_cycle;Signal;HPM_P1;HPM_P2
2022/03/20 00:00:53;;;;;;;8.60;5.00;;;4.90;99.90;;;;;;5054402;28;20043;-78
2022/03/20 00:03:18;;;;;;;11.73;7.55;;;4.90;99.90;;;;;;5052009;28;20048;-78
2022/03/20 00:05:46;;;;;;;6.70;4.93;;;4.90;99.90;;;;;;5053887;28;20045;-77
2022/03/20 00:08:12;;;;;;;7.13;5.25;;;4.80;99.90;;;;;;5069309;28;20099;-78
2022/03/20 00:10:51;;;;;;;8.25;5.35;;;4.90;99.90;;;;;;5066933;28;20045;-76
2022/03/20 00:13:20;;;;;;;13.38;5.72;;;4.90;99.90;;;;;;5066164;28;20044;-78
2022/03/20 00:15:48;;;;;;;7.00;5.43;;;5.00;99.90;;;;;;5069649;28;20040;-78
2022/03/20 00:18:16;;;;;;;7.22;6.00;;;4.90;99.90;;;;;;5070072;28;20040;-78
2022/03/20 00:21:03;;;;;;;7.53;5.22;;;4.90;99.90;;;;;;5056516;28;20498;-78
2022/03/20 00:23:29;;;;;;;9.85;6.63;;;4.80;99.90;;;;;;5067259;28;20519;-77
2022/03/20 00:25:56;;;;;;;9.70;5.72;;;4.80;99.90;;;;;;5057175;28;20041;-78
2022/03/20 00:28:23;;;;;;;8.75;5.05;;;4.80;99.90;;;;;;5067417;28;20052;-78
2022/03/20 00:30:49;;;;;;;10.85;6.75;;;4.80;99.90;;;;;;5062266;28;20029;-78
2022/03/20 00:33:15;;;;;;;14.68;6.55;;;4.70;99.90;;;;;;5056952;28;20047;-78
2022/03/20 00:35:41;;;;;;;9.32;6.38;;;4.70;99.90;;;;;;5069283;28;20049;-77
2022/03/20 00:38:08;;;;;;;9.68;6.03;;;4.60;99.90;;;;;;5053970;28;20049;-77
2022/03/20 00:40:34;;;;;;;11.50;6.70;;;4.60;99.90;;;;;;5053265;28;20044;-76
2022/03/20 00:43:00;;;;;;;13.90;7.07;;;4.60;99.90;;;;;;5062657;28;20045;-78
2022/03/20 00:45:28;;;;;;;8.65;5.63;;;4.60;99.90;;;;;;5069471;28;20031;-76
2022/03/20 00:47:54;;;;;;;9.25;7.30;;;4.50;99.90;;;;;;5068194;28;20052;-79
2022/03/20 00:50:21;;;;;;;9.27;6.93;;;4.40;99.90;;;;;;5068782;28;20568;-78
2022/03/20 00:52:46;;;;;;;11.25;6.60;;;4.50;99.90;;;;;;5069129;28;20154;-77
2022/03/20 00:55:12;;;;;;;12.18;7.15;;;4.40;99.90;;;;;;5065896;28;20037;-79
2022/03/20 00:57:38;;;;;;;9.10;5.13;;;4.50;99.90;;;;;;5057813;28;20433;-76
2022/03/20 01:00:05;;;;;;;16.05;7.10;;;4.60;99.90;;;;;;5063763;28;20029;-78
2022/03/20 01:02:42;;;;;;;11.65;5.65;;;4.50;99.90;;;;;;5062221;28;20107;-78
2022/03/20 01:05:08;;;;;;;8.35;5.43;;;4.40;99.90;;;;;;5048672;28;20052;-78
2022/03/20 01:07:35;;;;;;;8.50;6.05;;;4.40;99.90;;;;;;5053684;28;20056;-79
2022/03/20 01:10:01;;;;;;;13.82;6.75;;;4.40;99.90;;;;;;5068165;28;20491;-78
2022/03/20 01:12:28;;;;;;;11.68;6.00;;;4.30;99.90;;;;;;5057980;28;20075;-79
2022/03/20 01:14:54;;;;;;;11.45;5.82;;;4.30;99.90;;;;;;5065892;28;20649;-78
2022/03/20 01:17:20;;;;;;;10.18;5.47;;;4.30;99.90;;;;;;5067415;28;20036;-78
2022/03/20 01:19:45;;;;;;;7.18;4.97;;;4.20;99.90;;;;;;5069514;28;20040;-79
2022/03/20 01:22:11;;;;;;;11.15;6.72;;;4.20;99.90;;;;;;5064950;28;20067;-78
2022/03/20 01:24:36;;;;;;;10.57;7.68;;;4.20;99.90;;;;;;5069226;28;20029;-77
2022/03/20 01:27:02;;;;;;;12.75;6.47;;;4.20;99.90;;;;;;5067984;28;20041;-78
2022/03/20 01:29:27;;;;;;;10.38;6.30;;;4.10;99.90;;;;;;5062752;28;20411;-79
2022/03/20 01:31:53;;;;;;;24.20;7.32;;;4.20;99.90;;;;;;5063665;28;20056;-79
2022/03/20 01:34:19;;;;;;;10.27;6.05;;;4.20;99.90;;;;;;5066194;28;20043;-77
2022/03/20 01:36:45;;;;;;;9.65;7.00;;;4.10;99.90;;;;;;5067046;28;20865;-77
2022/03/20 01:39:10;;;;;;;12.23;6.25;;;4.20;99.90;;;;;;5068772;28;20094;-78
2022/03/20 01:41:36;;;;;;;13.40;6.93;;;4.20;99.90;;;;;;5057265;28;20041;-78
2022/03/20 01:44:03;;;;;;;13.38;6.55;;;4.20;99.90;;;;;;5031441;28;20044;-77
2022/03/20 01:46:31;;;;;;;10.60;6.43;;;4.10;99.90;;;;;;5049074;28;20049;-77
2022/03/20 01:48:57;;;;;;;12.15;7.18;;;4.10;99.90;;;;;;5049614;28;20475;-77
2022/03/20 01:54:10;;;;;;;13.25;7.10;;;4.10;99.90;;;;;;5053218;28;20067;-78
2022/03/20 01:56:39;;;;;;;13.38;6.28;;;4.20;99.90;;;;;;5054609;28;20049;-77
2022/03/20 01:59:05;;;;;;;20.08;9.43;;;4.20;99.90;;;;;;5057032;28;20087;-78
2022/03/20 02:01:31;;;;;;;12.05;7.30;;;4.20;99.90;;;;;;5056632;28;20491;-79
2022/03/20 02:03:57;;;;;;;13.68;8.10;;;4.20;99.90;;;;;;5057936;28;20048;-76
2022/03/20 02:06:25;;;;;;;18.52;7.95;;;4.20;99.90;;;;;;5054032;28;20037;-77
2022/03/20 02:08:51;;;;;;;11.73;7.78;;;4.10;99.90;;;;;;5053404;28;20118;-76
2022/03/20 02:11:17;;;;;;;11.98;7.20;;;4.10;99.90;;;;;;5062775;28;20049;-76
2022/03/20 02:13:43;;;;;;;10.43;6.93;;;4.10;99.90;;;;;;5053537;28;20102;-76
2022/03/20 02:16:08;;;;;;;10.38;7.55;;;4.00;99.90;;;;;;5052840;28;20056;-78
2022/03/20 02:18:34;;;;;;;13.82;8.82;;;3.90;99.90;;;;;;5052297;28;20037;-76
2022/03/20 02:21:03;;;;;;;10.63;7.82;;;4.00;99.90;;;;;;5060268;28;20427;-78
2022/03/20 02:23:31;;;;;;;15.90;8.68;;;4.00;99.90;;;;;;5062824;28;20037;-76
2022/03/20 02:25:57;;;;;;;13.38;7.07;;;3.80;99.90;;;;;;5070080;28;20052;-77
2022/03/20 02:28:23;;;;;;;21.92;8.65;;;3.90;99.90;;;;;;5072073;28;20032;-78
2022/03/20 02:30:49;;;;;;;13.90;7.40;;;3.80;99.90;;;;;;5066196;28;20076;-77
2022/03/20 02:33:14;;;;;;;14.50;9.23;;;3.80;99.90;;;;;;5065772;28;20033;-78
2022/03/20 02:35:40;;;;;;;12.38;7.70;;;3.80;99.90;;;;;;5071138;28;20070;-78
2022/03/20 02:38:10;;;;;;;13.05;8.50;;;3.70;99.90;;;;;;5071449;28;20053;-77
2022/03/20 02:40:36;;;;;;;21.63;9.43;;;3.70;99.90;;;;;;5053750;28;20487;-78
2022/03/20 02:43:05;;;;;;;13.32;8.55;;;3.60;99.90;;;;;;5070036;28;20499;-76
2022/03/20 02:45:31;;;;;;;16.02;9.02;;;3.70;99.90;;;;;;5083342;28;20041;-78
2022/03/20 02:47:58;;;;;;;11.45;8.93;;;3.70;99.90;;;;;;5051567;28;20067;-78
2022/03/20 02:50:29;;;;;;;13.13;8.65;;;3.60;99.90;;;;;;5052100;28;20128;-77
2022/03/20 02:52:59;;;;;;;13.73;9.65;;;3.60;99.90;;;;;;5061828;28;20046;-77
2022/03/20 02:55:36;;;;;;;17.20;9.38;;;3.60;99.90;;;;;;5049831;28;20503;-77
2022/03/20 02:58:04;;;;;;;14.65;8.88;;;3.50;99.90;;;;;;5071257;28;20071;-77
2022/03/20 03:00:32;;;;;;;13.93;9.82;;;3.60;99.90;;;;;;5068703;28;20390;-76
2022/03/20 03:02:59;;;;;;;26.42;12.52;;;3.50;99.90;;;;;;5063628;28;20048;-78
2022/03/20 03:05:27;;;;;;;18.85;9.73;;;3.50;99.90;;;;;;5067424;28;20040;-77
2022/03/20 03:10:56;;;;;;;16.02;8.48;;;3.50;99.90;;;;;;5049031;28;20045;-77
2022/03/20 03:13:37;;;;;;;17.20;10.75;;;3.40;99.90;;;;;;5058260;28;20082;-78
2022/03/20 03:16:08;;;;;;;17.67;8.55;;;3.50;99.90;;;;;;5068093;28;20090;-77
2022/03/20 03:18:34;;;;;;;21.77;9.85;;;3.50;99.90;;;;;;5062823;28;20051;-77
2022/03/20 03:21:00;;;;;;;19.55;9.35;;;3.40;99.90;;;;;;5065188;28;20059;-77
2022/03/20 03:23:26;;;;;;;19.52;9.80;;;3.40;99.90;;;;;;5051214;28;20544;-76
2022/03/20 03:25:53;;;;;;;23.45;10.02;;;3.40;99.90;;;;;;5052836;28;20098;-76
2022/03/20 03:28:19;;;;;;;15.35;10.20;;;3.50;99.90;;;;;;5064677;28;20025;-77
2022/03/20 03:30:47;;;;;;;13.70;8.93;;;3.40;99.90;;;;;;5051186;28;20510;-76
2022/03/20 03:33:14;;;;;;;15.52;9.30;;;3.30;99.90;;;;;;5051205;28;20507;-77
2022/03/20 03:35:42;;;;;;;14.98;9.10;;;3.30;99.90;;;;;;5051738;28;20037;-77
2022/03/20 03:38:13;;;;;;;16.08;10.32;;;3.30;99.90;;;;;;5057617;28;20037;-77
2022/03/20 03:40:40;;;;;;;16.85;9.32;;;3.30;99.90;;;;;;5049438;28;20495;-78
2022/03/20 03:43:06;;;;;;;18.25;11.02;;;3.30;99.90;;;;;;5056096;28;20504;-76
2022/03/20 03:45:32;;;;;;;22.38;10.50;;;3.30;99.90;;;;;;5066251;28;20033;-78
2022/03/20 03:47:58;;;;;;;19.95;11.90;;;3.20;99.90;;;;;;5064517;28;20131;-77
2022/03/20 03:50:24;;;;;;;18.25;9.57;;;3.20;99.90;;;;;;5071174;28;20123;-77
2022/03/20 03:52:50;;;;;;;15.95;9.93;;;3.10;99.90;;;;;;5069521;28;20047;-77
2022/03/20 03:55:16;;;;;;;15.73;9.77;;;3.20;99.90;;;;;;5051462;28;20048;-78
2022/03/20 03:57:43;;;;;;;16.13;11.07;;;3.10;99.90;;;;;;5056715;28;20056;-77
2022/03/20 04:00:09;;;;;;;16.98;10.40;;;3.10;99.90;;;;;;5050794;28;20400;-77
2022/03/20 04:02:35;;;;;;;14.73;10.70;;;3.10;99.90;;;;;;5055433;28;20052;-76
2022/03/20 04:05:00;;;;;;;16.75;10.77;;;3.00;99.90;;;;;;5069817;28;20044;-76
2022/03/20 04:07:26;;;;;;;20.23;13.07;;;3.10;99.90;;;;;;5060488;28;20048;-78
2022/03/20 04:09:52;;;;;;;17.98;12.38;;;3.10;99.90;;;;;;5050536;28;20128;-77
2022/03/20 04:12:18;;;;;;;18.77;10.95;;;3.00;99.90;;;;;;5061103;28;20064;-76
2022/03/20 04:14:45;;;;;;;17.77;10.90;;;3.00;99.90;;;;;;5054588;28;20057;-77
2022/03/20 04:17:10;;;;;;;23.90;13.20;;;3.10;99.90;;;;;;5055227;28;20032;-78
2022/03/20 04:19:36;;;;;;;26.52;11.80;;;3.10;99.90;;;;;;5069734;28;20564;-80
2022/03/20 04:22:03;;;;;;;21.77;11.45;;;3.00;99.90;;;;;;5068334;28;20144;-78
2022/03/20 04:24:28;;;;;;;16.58;11.10;;;3.00;99.90;;;;;;5069637;28;20072;-77
2022/03/20 04:26:55;;;;;;;15.93;11.20;;;2.90;99.90;;;;;;5064438;28;20711;-77
2022/03/20 04:29:21;;;;;;;21.15;12.10;;;2.90;99.90;;;;;;5061067;28;20387;-77
2022/03/20 04:31:50;;;;;;;18.50;12.35;;;2.90;99.90;;;;;;5068069;28;20056;-77
2022/03/20 04:34:16;;;;;;;18.83;11.82;;;3.00;99.90;;;;;;5052683;28;20082;-76
2022/03/20 04:36:42;;;;;;;19.58;11.85;;;2.90;99.90;;;;;;5049540;28;20045;-77
2022/03/20 04:39:08;;;;;;;17.48;11.85;;;2.90;99.90;;;;;;5068151;28;20036;-77
2022/03/20 04:41:35;;;;;;;21.45;11.13;;;2.90;99.90;;;;;;5057156;28;20053;-77
2022/03/20 04:44:01;;;;;;;19.88;13.75;;;2.90;99.90;;;;;;5050000;28;20576;-77
2022/03/20 04:46:27;;;;;;;21.23;11.40;;;2.90;99.90;;;;;;5049506;28;20045;-76
2022/03/20 04:59:51;;;;;;;23.10;13.18;;;2.80;99.90;;;;;;5050206;28;20076;-77
2022/03/20 05:02:17;;;;;;;24.48;14.77;;;2.80;99.90;;;;;;5064431;28;20045;-78
2022/03/20 05:04:42;;;;;;;30.27;12.70;;;2.90;99.90;;;;;;5048706;28;20103;-77
2022/03/20 05:07:08;;;;;;;18.45;12.40;;;2.90;99.90;;;;;;5050667;28;20044;-77
2022/03/20 05:15:07;;;;;;;19.25;12.98;;;2.80;99.90;;;;;;5068747;28;20048;-77
2022/03/20 05:17:33;;;;;;;16.67;11.95;;;2.90;99.90;;;;;;5066274;28;20041;-77
2022/03/20 05:19:58;;;;;;;21.88;13.98;;;2.70;99.90;;;;;;5054588;28;20029;-77
2022/03/20 05:22:24;;;;;;;22.10;12.77;;;2.70;99.90;;;;;;5054645;28;20077;-77
2022/03/20 05:24:49;;;;;;;18.60;13.63;;;2.70;99.90;;;;;;5056430;28;20044;-77
2022/03/20 05:27:15;;;;;;;28.55;14.80;;;2.70;99.90;;;;;;5072326;28;20916;-77
2022/03/20 05:29:41;;;;;;;20.83;12.73;;;2.70;99.90;;;;;;5066800;28;20048;-78
2022/03/20 05:32:08;;;;;;;21.55;13.52;;;2.70;99.90;;;;;;5058840;28;20041;-78
2022/03/20 05:34:35;;;;;;;23.38;13.73;;;2.70;99.90;;;;;;5074172;28;20067;-77
2022/03/20 05:37:02;;;;;;;18.70;13.60;;;2.70;99.90;;;;;;5075751;28;20093;-77
2022/03/20 05:39:28;;;;;;;22.95;13.30;;;2.70;99.90;;;;;;5056984;28;20098;-76
2022/03/20 05:41:54;;;;;;;18.63;14.43;;;2.70;99.90;;;;;;5056914;28;20766;-78
2022/03/20 05:44:21;;;;;;;18.48;14.02;;;2.70;99.90;;;;;;5058488;28;20040;-77
2022/03/20 05:46:51;;;;;;;22.95;15.20;;;2.70;99.90;;;;;;5072105;28;20494;-79
2022/03/20 05:49:21;;;;;;;24.15;14.27;;;2.60;99.90;;;;;;5051870;28;20041;-78
2022/03/20 05:51:48;;;;;;;28.88;15.20;;;2.60;99.90;;;;;;5053384;28;20132;-77
2022/03/20 05:54:16;;;;;;;24.60;15.48;;;2.70;99.90;;;;;;5055604;28;20184;-78
2022/03/20 05:59:27;;;;;;;23.98;14.38;;;2.60;99.90;;;;;;5054835;28;20045;-79
2022/03/20 06:01:53;;;;;;;26.77;14.43;;;2.60;99.90;;;;;;5063221;28;20105;-78
2022/03/20 06:04:19;;;;;;;22.65;14.30;;;2.60;99.90;;;;;;5060833;28;20041;-78
2022/03/20 06:06:45;;;;;;;22.23;13.73;;;2.70;99.90;;;;;;5052574;28;20041;-77
2022/03/20 06:09:11;;;;;;;27.67;14.82;;;2.70;99.90;;;;;;5056816;28;20102;-77
2022/03/20 06:11:36;;;;;;;22.65;15.02;;;2.70;99.90;;;;;;5065702;28;20120;-77
2022/03/20 06:14:03;;;;;;;25.30;15.65;;;2.70;99.90;;;;;;5063538;28;20056;-78
2022/03/20 06:16:29;;;;;;;21.92;14.15;;;2.70;99.90;;;;;;5052488;28;20098;-78
2022/03/20 06:18:56;;;;;;;23.45;15.40;;;2.70;99.90;;;;;;5053129;28;20033;-78
2022/03/20 06:21:23;;;;;;;19.92;15.18;;;2.70;99.90;;;;;;5052344;28;20060;-78
2022/03/20 06:23:49;;;;;;;21.52;14.38;;;2.70;99.90;;;;;;5057461;28;20041;-76
2022/03/20 06:26:16;;;;;;;26.42;16.08;;;2.70;99.90;;;;;;5050280;28;20506;-77
2022/03/20 06:28:43;;;;;;;22.13;15.45;;;2.70;99.90;;;;;;5043298;28;20082;-77
2022/03/20 06:31:12;;;;;;;22.90;15.55;;;2.70;99.90;;;;;;5071748;28;20410;-77
2022/03/20 06:33:39;;;;;;;28.15;13.32;;;2.70;99.90;;;;;;5054191;28;20120;-78
2022/03/20 06:36:06;;;;;;;23.38;16.23;;;2.70;99.90;;;;;;5063712;28;20040;-77
2022/03/20 06:38:33;;;;;;;21.83;16.00;;;2.80;99.90;;;;;;5070993;28;20085;-77
2022/03/20 06:41:00;;;;;;;23.13;14.38;;;2.70;99.90;;;;;;5069845;28;20059;-79
2022/03/20 06:43:25;;;;;;;28.67;15.48;;;2.80;99.90;;;;;;5070484;28;20082;-76
2022/03/20 06:45:53;;;;;;;19.92;13.07;;;2.80;99.90;;;;;;5072458;28;20040;-76
2022/03/20 06:48:19;;;;;;;19.77;14.45;;;2.70;99.90;;;;;;5069003;28;20053;-77
2022/03/20 06:50:45;;;;;;;21.80;14.90;;;2.80;99.90;;;;;;5071883;28;20109;-78
2022/03/20 06:53:11;;;;;;;25.05;15.45;;;2.80;99.90;;;;;;5068770;28;20052;-78
2022/03/20 06:55:38;;;;;;;27.02;16.77;;;2.90;99.90;;;;;;5050488;28;20045;-77
2022/03/20 06:58:04;;;;;;;22.63;16.35;;;2.90;99.90;;;;;;5061996;28;20039;-79
2022/03/20 07:00:30;;;;;;;25.27;16.83;;;3.00;99.90;;;;;;5070200;28;20119;-81
2022/03/20 07:02:56;;;;;;;24.80;16.10;;;3.00;99.90;;;;;;5069639;28;20084;-77
2022/03/20 07:05:22;;;;;;;30.55;18.00;;;3.00;99.90;;;;;;5077759;28;20063;-80
2022/03/20 07:07:50;;;;;;;22.25;15.27;;;3.10;99.90;;;;;;5069855;28;20407;-81
2022/03/20 07:10:19;;;;;;;25.50;16.95;;;3.10;99.90;;;;;;5054545;28;20466;-81
2022/03/20 07:12:45;;;;;;;20.45;13.43;;;3.20;99.90;;;;;;5051819;28;20339;-82
2022/03/20 07:15:11;;;;;;;23.75;15.00;;;3.20;99.90;;;;;;5059217;28;20040;-81
2022/03/20 07:17:37;;;;;;;29.10;15.48;;;3.20;99.90;;;;;;5061398;28;20045;-82
2022/03/20 07:20:09;;;;;;;22.60;15.43;;;3.20;99.90;;;;;;5069383;28;20098;-80
2022/03/20 07:22:35;;;;;;;19.65;13.75;;;3.30;99.90;;;;;;5068970;28;20051;-81
2022/03/20 07:29:29;;;;;;;23.73;15.32;;;3.30;99.90;;;;;;5078420;28;20048;-80
2022/03/20 07:30:33;;;;;;;21.83;15.20;;;3.30;99.90;;;;;;5060807;28;20049;-81
2022/03/20 07:32:58;;;;;;;22.20;14.95;;;3.40;99.90;;;;;;5065422;28;20063;-80
2022/03/20 07:35:24;;;;;;;28.15;17.90;;;3.40;99.90;;;;;;5070444;28;20628;-79
2022/03/20 07:37:51;;;;;;;22.08;14.40;;;3.40;99.90;;;;;;5058522;28;20080;-79
2022/03/20 07:40:16;;;;;;;24.98;13.68;;;3.50;99.90;;;;;;5050052;28;20044;-79
2022/03/20 07:42:42;;;;;;;21.00;14.05;;;3.60;99.90;;;;;;5067062;28;20044;-78
2022/03/20 07:45:09;;;;;;;25.85;16.40;;;3.70;99.90;;;;;;5069815;28;20036;-80
2022/03/20 07:47:35;;;;;;;23.83;18.67;;;3.80;99.90;;;;;;5070016;28;20574;-80
2022/03/20 07:50:01;;;;;;;25.40;15.10;;;3.80;99.90;;;;;;5069787;28;20120;-79
2022/03/20 07:52:27;;;;;;;20.58;14.40;;;4.00;99.90;;;;;;5054860;28;20124;-79
2022/03/20 07:54:53;;;;;;;24.10;15.63;;;3.90;99.90;;;;;;5052472;28;20482;-80
2022/03/20 07:57:18;;;;;;;24.15;16.02;;;4.00;99.90;;;;;;5056444;28;20048;-79
2022/03/20 07:59:47;;;;;;;25.70;16.30;;;4.10;99.90;;;;;;5055010;28;20040;-78
2022/03/20 08:02:12;;;;;;;24.33;18.52;;;4.20;99.90;;;;;;5058799;28;20045;-78
2022/03/20 08:04:40;;;;;;;23.55;14.68;;;4.20;99.90;;;;;;5065905;28;20067;-84
2022/03/20 08:07:06;;;;;;;25.60;17.77;;;4.30;99.90;;;;;;5068524;28;20044;-78
2022/03/20 08:09:32;;;;;;;31.50;15.93;;;4.30;99.90;;;;;;5067760;28;20044;-80
2022/03/20 08:11:58;;;;;;;23.63;15.80;;;4.30;99.90;;;;;;5069679;28;20396;-80
2022/03/20 08:14:24;;;;;;;24.63;15.95;;;4.30;99.90;;;;;;5069913;28;20187;-80
2022/03/20 08:16:50;;;;;;;25.42;17.33;;;4.40;99.90;;;;;;5068809;28;20101;-78
2022/03/20 08:19:19;;;;;;;27.63;17.42;;;4.50;99.90;;;;;;5070107;28;20055;-80
2022/03/20 08:21:47;;;;;;;20.63;15.90;;;4.50;99.90;;;;;;5060656;28;20052;-81
2022/03/20 08:24:14;;;;;;;26.77;17.25;;;4.60;99.90;;;;;;5065734;28;20033;-79
2022/03/20 08:26:40;;;;;;;33.58;18.45;;;4.70;99.90;;;;;;5053075;28;20072;-80
2022/03/20 08:29:08;;;;;;;25.05;16.60;;;4.70;99.90;;;;;;5050423;28;20447;-77
2022/03/20 08:31:34;;;;;;;24.92;15.95;;;4.70;99.90;;;;;;5065647;28;20072;-81
2022/03/20 08:34:00;;;;;;;25.05;16.60;;;4.80;99.90;;;;;;5058132;28;20048;-79
2022/03/20 08:36:26;;;;;;;20.20;14.48;;;4.80;99.90;;;;;;5068004;28;20079;-77
2022/03/20 08:38:52;;;;;;;27.63;17.80;;;4.90;99.90;;;;;;5051933;28;20080;-79
2022/03/20 08:41:18;;;;;;;20.40;14.77;;;5.00;99.90;;;;;;5067951;28;20040;-79
2022/03/20 08:43:44;;;;;;;28.25;16.88;;;5.00;99.90;;;;;;5070508;28;20085;-79
2022/03/20 08:46:10;;;;;;;24.88;16.25;;;5.10;99.90;;;;;;5068988;28;20045;-79
2022/03/20 08:48:35;;;;;;;24.98;14.75;;;5.30;99.90;;;;;;5070929;28;20055;-84
2022/03/20 08:51:01;;;;;;;26.55;17.80;;;5.10;99.90;;;;;;5067639;28;20040;-83
2022/03/20 08:53:27;;;;;;;25.10;15.98;;;5.20;99.90;;;;;;5071612;28;20486;-79
2022/03/20 08:55:52;;;;;;;22.48;16.50;;;5.40;99.90;;;;;;5069776;28;20033;-81
2022/03/20 08:58:18;;;;;;;27.08;18.45;;;5.50;99.90;;;;;;5071851;28;20032;-85
2022/03/20 09:00:44;;;;;;;29.33;16.63;;;5.50;99.90;;;;;;5067421;28;20036;-88
2022/03/20 09:03:12;;;;;;;28.05;16.05;;;5.20;99.90;;;;;;5062167;28;20112;-86
2022/03/20 09:05:38;;;;;;;31.33;18.27;;;5.20;99.90;;;;;;5065767;28;20059;-85
2022/03/20 09:08:04;;;;;;;29.13;17.65;;;5.30;99.90;;;;;;5058890;28;20037;-83
2022/03/20 09:10:30;;;;;;;27.02;16.75;;;5.50;99.90;;;;;;5078782;28;20070;-82
2022/03/20 09:12:57;;;;;;;25.10;16.45;;;5.60;99.90;;;;;;5077707;28;20040;-80
2022/03/20 09:15:24;;;;;;;26.10;19.42;;;5.80;99.90;;;;;;5077351;28;20048;-86
2022/03/20 09:20:37;;;;;;;28.17;19.00;;;5.80;99.90;;;;;;5064560;28;20040;-84
2022/03/20 09:23:04;;;;;;;23.27;17.23;;;6.00;99.90;;;;;;5059815;28;20406;-88
2022/03/20 09:25:32;;;;;;;22.27;17.70;;;6.20;99.90;;;;;;5062339;28;20067;-83
2022/03/20 09:27:58;;;;;;;28.42;17.90;;;6.20;99.90;;;;;;5075988;28;20052;-85
2022/03/20 09:30:23;;;;;;;25.35;17.58;;;6.30;99.90;;;;;;5076761;28;20128;-84
2022/03/20 09:32:50;;;;;;;27.77;18.20;;;6.30;99.90;;;;;;5074716;28;20088;-83
2022/03/20 09:35:17;;;;;;;25.35;19.92;;;6.40;99.90;;;;;;5072738;28;20562;-81
2022/03/20 09:37:43;;;;;;;27.27;19.58;;;6.50;99.90;;;;;;5073634;28;20406;-82
2022/03/20 09:40:13;;;;;;;25.08;18.20;;;6.60;99.90;;;;;;5075081;28;20040;-81
2022/03/20 09:42:40;;;;;;;23.85;17.90;;;6.60;99.90;;;;;;5072486;28;20045;-83
2022/03/20 09:45:08;;;;;;;25.90;18.92;;;6.70;99.90;;;;;;5055410;28;20087;-83
2022/03/20 09:47:41;;;;;;;24.35;17.10;;;6.70;99.90;;;;;;5067197;28;20040;-79
2022/03/20 09:50:09;;;;;;;28.17;19.85;;;6.80;99.90;;;;;;5058272;28;20044;-82
2022/03/20 09:52:35;;;;;;;25.92;17.70;;;6.70;99.90;;;;;;5054759;28;20044;-82
2022/03/20 09:55:03;;;;;;;28.48;19.50;;;6.80;99.90;;;;;;5066941;28;20071;-82
2022/03/20 09:57:29;;;;;;;28.65;19.65;;;6.90;99.90;;;;;;5072736;28;20448;-82
2022/03/20 09:59:56;;;;;;;25.95;18.35;;;6.90;99.90;;;;;;5065032;28;20043;-80
2022/03/20 10:02:27;;;;;;;29.58;18.20;;;6.90;99.90;;;;;;5059668;28;20049;-82
2022/03/20 10:04:56;;;;;;;32.38;19.13;;;7.10;99.90;;;;;;5058052;28;20128;-83
2022/03/20 10:07:24;;;;;;;26.80;18.95;;;7.10;99.90;;;;;;5061596;28;20057;-82
2022/03/20 10:10:13;;;;;;;25.33;18.40;;;7.20;99.90;;;;;;5056722;28;20610;-81
2022/03/20 10:12:44;;;;;;;25.80;17.83;;;7.30;99.90;;;;;;5061253;28;20044;-80
2022/03/20 10:15:24;;;;;;;23.95;17.13;;;7.30;99.90;;;;;;5069755;28;20111;-82
2022/03/20 10:18:15;;;;;;;69.90;22.35;;;7.40;99.90;;;;;;5081886;28;20127;-83
2022/03/20 10:20:49;;;;;;;26.85;17.83;;;7.60;99.90;;;;;;5060390;28;20037;-82
2022/03/20 10:23:29;;;;;;;28.75;18.02;;;7.50;99.90;;;;;;5061788;28;20036;-83
2022/03/20 10:25:55;;;;;;;;;;;7.70;99.90;;;;;;5072426;28;20044;-82
2022/03/20 10:28:21;;;;;;;35.63;19.65;;;7.80;99.90;;;;;;5071376;28;20031;-82
2022/03/20 10:31:00;;;;;;;28.88;19.85;;;7.90;99.90;;;;;;5062150;28;20037;-81
2022/03/20 10:33:26;;;;;;;33.23;21.17;;;7.80;99.90;;;;;;5052937;28;20037;-80
2022/03/20 10:36:11;;;;;;;33.28;20.25;;;7.80;99.90;;;;;;5056787;28;20506;-82
2022/03/20 10:38:38;;;;;;;35.08;22.80;;;8.00;99.90;;;;;;5052243;28;20049;-82
2022/03/20 10:41:38;;;;;;;26.55;18.55;;;8.00;99.90;;;;;;5051205;28;20056;-82
2022/03/20 10:44:14;;;;;;;25.80;17.88;;;8.10;99.90;;;;;;5037931;28;20573;-82
2022/03/20 10:46:41;;;;;;;24.55;19.50;;;8.20;99.90;;;;;;5051472;28;20044;-79
2022/03/20 10:49:07;;;;;;;26.88;19.92;;;8.10;99.90;;;;;;5052210;28;20085;-84
2022/03/20 10:51:41;;;;;;;28.50;21.25;;;8.30;99.90;;;;;;5051497;28;20356;-82
2022/03/20 10:54:15;;;;;;;27.52;19.88;;;8.40;99.90;;;;;;5054986;28;20107;-81
2022/03/20 10:56:58;;;;;;;30.23;17.42;;;8.40;99.90;;;;;;5051372;28;20041;-82
2022/03/20 10:59:25;;;;;;;27.88;19.33;;;8.50;99.90;;;;;;5052681;28;20048;-82
2022/03/20 11:01:51;;;;;;;25.75;20.40;;;8.60;99.90;;;;;;5060969;28;20080;-79
2022/03/20 11:04:19;;;;;;;32.60;21.40;;;8.60;99.90;;;;;;5063820;28;20052;-81
2022/03/20 11:06:46;;;;;;;27.27;20.10;;;8.80;99.90;;;;;;5070830;28;20064;-79
2022/03/20 11:09:12;;;;;;;30.27;19.00;;;8.70;99.90;;;;;;5058365;28;20495;-82
2022/03/20 11:11:42;;;;;;;31.00;20.23;;;8.90;99.90;;;;;;5051390;28;20041;-80
2022/03/20 11:14:10;;;;;;;32.20;21.70;;;8.80;99.90;;;;;;5060645;28;20131;-80
2022/03/20 11:16:37;;;;;;;29.23;20.13;;;9.10;99.90;;;;;;5063849;28;20052;-82
2022/03/20 11:19:08;;;;;;;29.50;20.27;;;8.90;99.90;;;;;;5071364;28;20038;-80
2022/03/20 11:21:38;;;;;;;41.38;21.05;;;9.10;99.90;;;;;;5053590;28;20059;-80
2022/03/20 11:24:05;;;;;;;31.67;20.10;;;9.10;99.90;;;;;;5061690;28;20076;-79
2022/03/20 11:26:33;;;;;;;31.33;20.67;;;9.30;99.90;;;;;;5050642;28;20132;-79
2022/03/20 11:29:03;;;;;;;33.25;22.35;;;9.20;99.90;;;;;;5051349;28;20549;-81
2022/03/20 11:31:34;;;;;;;28.38;21.55;;;9.20;99.90;;;;;;5049475;28;20050;-82
2022/03/20 11:34:03;;;;;;;27.75;20.05;;;9.40;99.90;;;;;;5067393;28;20044;-80
2022/03/20 11:36:29;;;;;;;27.60;20.75;;;9.40;99.90;;;;;;5070523;28;20044;-79
2022/03/20 11:39:15;;;;;;;30.00;22.48;;;9.40;99.90;;;;;;5069229;28;20044;-78
2022/03/20 11:41:42;;;;;;;29.42;21.52;;;9.60;99.90;;;;;;5070295;28;20101;-78
2022/03/20 11:44:10;;;;;;;30.38;22.20;;;9.70;99.90;;;;;;5067817;28;20044;-78
2022/03/20 11:46:36;;;;;;;27.77;19.80;;;9.60;99.90;;;;;;5050242;28;20041;-78
2022/03/20 11:49:23;;;;;;;30.83;19.77;;;9.70;99.90;;;;;;5069593;28;20061;-77
2022/03/20 11:52:07;;;;;;;30.42;20.65;;;10.00;99.90;;;;;;5069968;28;20036;-79
2022/03/20 11:54:54;;;;;;;31.45;22.10;;;9.90;99.90;;;;;;5065282;28;20531;-77
2022/03/20 11:57:29;;;;;;;28.55;20.77;;;10.00;99.90;;;;;;5055080;28;20107;-78
2022/03/20 12:00:11;;;;;;;34.78;22.20;;;10.10;99.90;;;;;;5050762;28;20123;-76
2022/03/20 12:03:14;;;;;;;28.23;21.00;;;10.20;99.90;;;;;;5063951;28;20051;-77
2022/03/20 12:06:01;;;;;;;27.23;20.55;;;9.90;99.90;;;;;;4995337;28;20056;-77
2022/03/20 12:08:41;;;;;;;34.95;22.80;;;9.90;99.90;;;;;;5045121;28;20446;-77
2022/03/20 12:11:37;;;;;;;25.02;19.42;;;10.00;99.90;;;;;;5050217;28;20048;-77
2022/03/20 12:14:09;;;;;;;29.48;21.30;;;10.30;99.90;;;;;;5053412;28;20045;-78
2022/03/20 12:16:43;;;;;;;27.85;20.23;;;10.30;99.90;;;;;;5054128;28;20049;-79
2022/03/20 12:19:14;;;;;;;26.83;18.67;;;10.20;99.90;;;;;;5062441;28;20041;-78
2022/03/20 12:22:01;;;;;;;34.72;22.20;;;10.20;99.90;;;;;;5063182;28;20107;-78
2022/03/20 12:24:36;;;;;;;27.20;20.00;;;10.30;99.90;;;;;;5068293;28;20044;-77
2022/03/20 12:27:20;;;;;;;28.85;22.73;;;10.40;99.90;;;;;;5060041;28;20143;-79
2022/03/20 12:29:49;;;;;;;29.23;21.67;;;10.50;99.90;;;;;;5049557;28;20059;-77
2022/03/20 12:32:16;;;;;;;33.03;20.80;;;10.50;99.80;;;;;;5054807;28;20051;-78
2022/03/20 12:34:43;;;;;;;32.75;22.05;;;10.40;98.80;;;;;;5058092;28;20044;-79
2022/03/20 12:37:34;;;;;;;27.95;21.08;;;10.50;99.60;;;;;;5049847;28;20041;-79
2022/03/20 12:40:13;;;;;;;29.45;19.92;;;10.60;99.90;;;;;;5066488;28;20086;-78
2022/03/20 12:42:43;;;;;;;30.33;22.75;;;10.40;98.90;;;;;;5066235;28;20052;-78
2022/03/20 12:45:14;;;;;;;29.98;21.58;;;10.40;99.60;;;;;;5050456;28;20527;-82
2022/03/20 12:47:53;;;;;;;28.15;20.88;;;10.20;99.90;;;;;;5053015;28;20056;-84
2022/03/20 12:50:26;;;;;;;29.95;20.92;;;10.20;99.90;;;;;;5068986;28;20048;-82
2022/03/20 12:53:06;;;;;;;66.80;21.85;;;10.30;99.90;;;;;;5039866;28;20090;-79
2022/03/20 12:55:32;;;;;;;30.10;21.23;;;10.20;99.80;;;;;;5049695;28;20055;-82
2022/03/20 12:57:58;;;;;;;29.33;21.75;;;10.20;99.90;;;;;;5062142;28;20040;-81
2022/03/20 13:00:33;;;;;;;25.48;20.23;;;10.30;99.90;;;;;;5074736;28;20047;-78
2022/03/20 13:03:03;;;;;;;28.08;21.40;;;10.10;99.90;;;;;;5072036;28;20059;-79
2022/03/20 13:05:45;;;;;;;32.97;21.52;;;10.00;99.90;;;;;;5077638;28;20040;-79
2022/03/20 13:08:17;;;;;;;27.67;20.48;;;10.30;99.90;;;;;;5064480;28;20071;-79
2022/03/20 13:10:43;;;;;;;30.33;20.45;;;10.40;99.90;;;;;;5035239;28;20099;-79
2022/03/20 13:13:09;;;;;;;29.50;20.65;;;10.50;99.90;;;;;;5052595;28;20065;-77
2022/03/20 13:15:38;;;;;;;27.10;20.17;;;10.50;99.90;;;;;;5049749;28;20471;-76
2022/03/20 13:18:07;;;;;;;28.98;20.55;;;10.40;99.90;;;;;;5056247;28;20040;-78